sensor_id;sensor_type;location;lat;lon;timestamp;P1;durP1;ratioP1;P2;durP2;ratioP2
9834;SDS011;69850;50.942;13.748;2024-02-23T00:02:43;2.70;;;1.30;;
9834;SDS011;69850;50.942;13.748;2024-02-23T00:06:04;2.25;;;1.50;;
9834;SDS011;69850;50.942;13.748;2024-02-23T00:09:25;2.53;;;1.70;;
9834;SDS011;69850;50.942;13.748;2024-02-23T00:12:47;2.20;;;2.00;;
9834;SDS011;69850;50.942;13.748;2024-02-23T00:16:08;1.80;;;1.70;;
9834;SDS011;69850;50.942;13.748;2024-02-23T00:19:30;1.60;;;1.50;;
9834;SDS011;69850;50.942;13.748;2024-02-23T00:22:51;1.88;;;1.45;;
9834;SDS011;69850;50.942;13.748;2024-02-23T00:26:11;2.10;;;1.30;;
9834;SDS011;69850;50.942;13.748;2024-02-23T00:29:32;1.00;;;0.80;;
9834;SDS011;69850;50.942;13.748;2024-02-23T00:32:53;0.60;;;0.60;;
9834;SDS011;69850;50.942;13.748;2024-02-23T00:36:13;1.77;;;0.55;;
9834;SDS011;69850;50.942;13.748;2024-02-23T00:39:34;0.57;;;0.30;;
9834;SDS011;69850;50.942;13.748;2024-02-23T00:42:56;0.30;;;0.30;;
9834;SDS011;69850;50.942;13.748;2024-02-23T00:46:17;1.50;;;0.45;;
9834;SDS011;69850;50.942;13.748;2024-02-23T00:49:38;0.30;;;0.30;;
9834;SDS011;69850;50.942;13.748;2024-02-23T00:52:58;0.30;;;0.30;;
9834;SDS011;69850;50.942;13.748;2024-02-23T00:56:19;0.65;;;0.50;;
9834;SDS011;69850;50.942;13.748;2024-02-23T00:59:40;0.20;;;0.20;;
9834;SDS011;69850;50.942;13.748;2024-02-23T01:03:00;0.70;;;0.40;;
9834;SDS011;69850;50.942;13.748;2024-02-23T01:06:21;0.30;;;0.30;;
9834;SDS011;69850;50.942;13.748;2024-02-23T01:09:42;1.83;;;0.40;;
9834;SDS011;69850;50.942;13.748;2024-02-23T01:13:02;0.70;;;0.32;;
9834;SDS011;69850;50.942;13.748;2024-02-23T01:16:23;0.30;;;0.30;;
9834;SDS011;69850;50.942;13.748;2024-02-23T01:19:44;0.35;;;0.28;;
9834;SDS011;69850;50.942;13.748;2024-02-23T01:23:05;1.20;;;0.40;;
9834;SDS011;69850;50.942;13.748;2024-02-23T01:26:25;0.40;;;0.40;;
9834;SDS011;69850;50.942;13.748;2024-02-23T01:29:47;0.47;;;0.30;;
9834;SDS011;69850;50.942;13.748;2024-02-23T01:33:08;0.73;;;0.50;;
9834;SDS011;69850;50.942;13.748;2024-02-23T01:36:29;0.65;;;0.40;;
9834;SDS011;69850;50.942;13.748;2024-02-23T01:39:49;0.57;;;0.40;;
9834;SDS011;69850;50.942;13.748;2024-02-23T01:43:10;0.60;;;0.40;;
9834;SDS011;69850;50.942;13.748;2024-02-23T01:46:30;1.00;;;0.30;;
9834;SDS011;69850;50.942;13.748;2024-02-23T01:49:51;1.75;;;0.40;;
9834;SDS011;69850;50.942;13.748;2024-02-23T01:53:12;0.73;;;0.50;;
9834;SDS011;69850;50.942;13.748;2024-02-23T01:56:33;0.30;;;0.30;;
9834;SDS011;69850;50.942;13.748;2024-02-23T01:59:56;0.60;;;0.30;;
9834;SDS011;69850;50.942;13.748;2024-02-23T02:03:18;0.68;;;0.40;;
9834;SDS011;69850;50.942;13.748;2024-02-23T02:06:39;0.40;;;0.30;;
9834;SDS011;69850;50.942;13.748;2024-02-23T02:09:59;0.85;;;0.30;;
9834;SDS011;69850;50.942;13.748;2024-02-23T02:13:20;0.30;;;0.25;;
9834;SDS011;69850;50.942;13.748;2024-02-23T02:16:40;0.35;;;0.35;;
9834;SDS011;69850;50.942;13.748;2024-02-23T02:20:02;0.70;;;0.30;;
9834;SDS011;69850;50.942;13.748;2024-02-23T02:23:24;0.55;;;0.20;;
9834;SDS011;69850;50.942;13.748;2024-02-23T02:26:46;0.88;;;0.30;;
9834;SDS011;69850;50.942;13.748;2024-02-23T02:30:11;0.45;;;0.20;;
9834;SDS011;69850;50.942;13.748;2024-02-23T02:33:32;0.50;;;0.40;;
9834;SDS011;69850;50.942;13.748;2024-02-23T02:36:53;0.30;;;0.30;;
9834;SDS011;69850;50.942;13.748;2024-02-23T02:40:14;0.30;;;0.30;;
9834;SDS011;69850;50.942;13.748;2024-02-23T02:43:35;0.77;;;0.30;;
9834;SDS011;69850;50.942;13.748;2024-02-23T02:46:56;1.35;;;0.30;;
9834;SDS011;69850;50.942;13.748;2024-02-23T02:50:17;0.30;;;0.20;;
9834;SDS011;69850;50.942;13.748;2024-02-23T02:53:38;1.95;;;0.30;;
9834;SDS011;69850;50.942;13.748;2024-02-23T02:56:58;0.55;;;0.32;;
9834;SDS011;69850;50.942;13.748;2024-02-23T03:00:19;1.30;;;0.40;;
9834;SDS011;69850;50.942;13.748;2024-02-23T03:03:40;1.45;;;0.30;;
9834;SDS011;69850;50.942;13.748;2024-02-23T03:07:00;0.15;;;0.10;;
9834;SDS011;69850;50.942;13.748;2024-02-23T03:10:21;0.70;;;0.30;;
9834;SDS011;69850;50.942;13.748;2024-02-23T03:13:42;0.93;;;0.30;;
9834;SDS011;69850;50.942;13.748;2024-02-23T03:17:03;0.40;;;0.40;;
9834;SDS011;69850;50.942;13.748;2024-02-23T03:20:24;1.63;;;0.47;;
9834;SDS011;69850;50.942;13.748;2024-02-23T03:23:44;2.67;;;0.30;;
9834;SDS011;69850;50.942;13.748;2024-02-23T03:27:05;0.93;;;0.30;;
9834;SDS011;69850;50.942;13.748;2024-02-23T03:30:26;0.20;;;0.20;;
9834;SDS011;69850;50.942;13.748;2024-02-23T03:33:46;1.20;;;0.25;;
9834;SDS011;69850;50.942;13.748;2024-02-23T03:37:07;1.83;;;0.45;;
9834;SDS011;69850;50.942;13.748;2024-02-23T03:40:28;0.35;;;0.20;;
9834;SDS011;69850;50.942;13.748;2024-02-23T03:43:49;0.52;;;0.30;;
9834;SDS011;69850;50.942;13.748;2024-02-23T03:47:09;0.65;;;0.30;;
9834;SDS011;69850;50.942;13.748;2024-02-23T03:50:30;0.60;;;0.20;;
9834;SDS011;69850;50.942;13.748;2024-02-23T03:53:51;0.80;;;0.30;;
9834;SDS011;69850;50.942;13.748;2024-02-23T03:57:11;0.90;;;0.30;;
9834;SDS011;69850;50.942;13.748;2024-02-23T04:00:32;0.93;;;0.40;;
9834;SDS011;69850;50.942;13.748;2024-02-23T04:03:53;0.30;;;0.30;;
9834;SDS011;69850;50.942;13.748;2024-02-23T04:07:13;0.55;;;0.20;;
9834;SDS011;69850;50.942;13.748;2024-02-23T04:10:34;1.75;;;0.30;;
9834;SDS011;69850;50.942;13.748;2024-02-23T04:13:55;1.73;;;0.40;;
9834;SDS011;69850;50.942;13.748;2024-02-23T04:17:15;0.20;;;0.20;;
9834;SDS011;69850;50.942;13.748;2024-02-23T04:20:37;1.63;;;0.30;;
9834;SDS011;69850;50.942;13.748;2024-02-23T04:23:57;0.40;;;0.20;;
9834;SDS011;69850;50.942;13.748;2024-02-23T04:27:18;1.33;;;0.25;;
9834;SDS011;69850;50.942;13.748;2024-02-23T04:30:39;0.40;;;0.28;;
9834;SDS011;69850;50.942;13.748;2024-02-23T04:34:01;1.42;;;0.40;;
9834;SDS011;69850;50.942;13.748;2024-02-23T04:37:21;0.80;;;0.30;;
9834;SDS011;69850;50.942;13.748;2024-02-23T04:40:42;1.52;;;0.40;;
9834;SDS011;69850;50.942;13.748;2024-02-23T04:44:03;1.77;;;0.38;;
9834;SDS011;69850;50.942;13.748;2024-02-23T04:47:24;1.52;;;0.55;;
9834;SDS011;69850;50.942;13.748;2024-02-23T04:50:44;2.17;;;0.45;;
9834;SDS011;69850;50.942;13.748;2024-02-23T04:54:05;2.35;;;0.30;;
9834;SDS011;69850;50.942;13.748;2024-02-23T04:57:26;0.30;;;0.30;;
9834;SDS011;69850;50.942;13.748;2024-02-23T05:00:47;1.75;;;0.30;;
9834;SDS011;69850;50.942;13.748;2024-02-23T05:04:07;1.75;;;0.80;;
9834;SDS011;69850;50.942;13.748;2024-02-23T05:07:28;4.53;;;3.10;;
9834;SDS011;69850;50.942;13.748;2024-02-23T05:10:49;1.83;;;0.80;;
9834;SDS011;69850;50.942;13.748;2024-02-23T05:14:10;0.40;;;0.40;;
9834;SDS011;69850;50.942;13.748;2024-02-23T05:17:31;0.85;;;0.20;;
9834;SDS011;69850;50.942;13.748;2024-02-23T05:20:52;0.47;;;0.47;;
9834;SDS011;69850;50.942;13.748;2024-02-23T05:24:12;0.45;;;0.30;;
9834;SDS011;69850;50.942;13.748;2024-02-23T05:27:33;0.80;;;0.55;;
9834;SDS011;69850;50.942;13.748;2024-02-23T05:30:54;1.42;;;0.50;;
9834;SDS011;69850;50.942;13.748;2024-02-23T05:34:16;4.18;;;1.35;;
9834;SDS011;69850;50.942;13.748;2024-02-23T05:37:37;0.80;;;0.50;;
9834;SDS011;69850;50.942;13.748;2024-02-23T05:40:57;1.17;;;0.82;;
9834;SDS011;69850;50.942;13.748;2024-02-23T05:44:18;1.70;;;0.25;;
9834;SDS011;69850;50.942;13.748;2024-02-23T05:47:39;2.35;;;0.30;;
9834;SDS011;69850;50.942;13.748;2024-02-23T05:51:00;0.45;;;0.25;;
9834;SDS011;69850;50.942;13.748;2024-02-23T05:54:21;0.70;;;0.30;;
9834;SDS011;69850;50.942;13.748;2024-02-23T05:57:42;1.70;;;0.30;;
9834;SDS011;69850;50.942;13.748;2024-02-23T06:01:03;0.47;;;0.20;;
9834;SDS011;69850;50.942;13.748;2024-02-23T06:04:24;0.50;;;0.30;;
9834;SDS011;69850;50.942;13.748;2024-02-23T06:07:44;0.20;;;0.10;;
9834;SDS011;69850;50.942;13.748;2024-02-23T06:11:05;0.45;;;0.30;;
9834;SDS011;69850;50.942;13.748;2024-02-23T06:14:26;2.70;;;0.35;;
9834;SDS011;69850;50.942;13.748;2024-02-23T06:17:46;1.45;;;0.38;;
9834;SDS011;69850;50.942;13.748;2024-02-23T06:21:14;1.20;;;0.32;;
9834;SDS011;69850;50.942;13.748;2024-02-23T06:24:35;1.42;;;0.30;;
9834;SDS011;69850;50.942;13.748;2024-02-23T06:27:56;0.73;;;0.28;;
9834;SDS011;69850;50.942;13.748;2024-02-23T06:31:17;0.60;;;0.30;;
9834;SDS011;69850;50.942;13.748;2024-02-23T06:34:37;1.70;;;0.40;;
9834;SDS011;69850;50.942;13.748;2024-02-23T06:37:58;0.32;;;0.32;;
9834;SDS011;69850;50.942;13.748;2024-02-23T06:41:19;1.02;;;0.30;;
9834;SDS011;69850;50.942;13.748;2024-02-23T06:44:39;1.20;;;0.20;;
9834;SDS011;69850;50.942;13.748;2024-02-23T06:48:00;1.20;;;0.40;;
9834;SDS011;69850;50.942;13.748;2024-02-23T06:51:21;0.93;;;0.30;;
9834;SDS011;69850;50.942;13.748;2024-02-23T06:54:41;3.50;;;1.23;;
9834;SDS011;69850;50.942;13.748;2024-02-23T06:58:02;3.88;;;1.60;;
9834;SDS011;69850;50.942;13.748;2024-02-23T07:01:24;1.13;;;0.50;;
9834;SDS011;69850;50.942;13.748;2024-02-23T07:04:45;5.15;;;2.90;;
9834;SDS011;69850;50.942;13.748;2024-02-23T07:08:06;3.55;;;1.48;;
9834;SDS011;69850;50.942;13.748;2024-02-23T07:11:27;1.13;;;0.30;;
9834;SDS011;69850;50.942;13.748;2024-02-23T07:14:48;2.90;;;0.40;;
9834;SDS011;69850;50.942;13.748;2024-02-23T07:18:09;1.30;;;0.32;;
9834;SDS011;69850;50.942;13.748;2024-02-23T07:21:30;1.85;;;0.40;;
9834;SDS011;69850;50.942;13.748;2024-02-23T07:24:50;0.82;;;0.40;;
9834;SDS011;69850;50.942;13.748;2024-02-23T07:28:11;1.13;;;0.30;;
9834;SDS011;69850;50.942;13.748;2024-02-23T07:31:32;1.25;;;0.30;;
9834;SDS011;69850;50.942;13.748;2024-02-23T07:34:52;2.38;;;0.40;;
9834;SDS011;69850;50.942;13.748;2024-02-23T07:38:13;1.83;;;0.20;;
9834;SDS011;69850;50.942;13.748;2024-02-23T07:41:34;0.75;;;0.20;;
9834;SDS011;69850;50.942;13.748;2024-02-23T07:44:55;0.20;;;0.20;;
9834;SDS011;69850;50.942;13.748;2024-02-23T07:48:16;2.50;;;0.35;;
9834;SDS011;69850;50.942;13.748;2024-02-23T07:51:37;1.55;;;0.30;;
9834;SDS011;69850;50.942;13.748;2024-02-23T07:54:57;1.38;;;0.30;;
9834;SDS011;69850;50.942;13.748;2024-02-23T07:58:20;1.90;;;0.50;;
9834;SDS011;69850;50.942;13.748;2024-02-23T08:01:41;1.25;;;0.30;;
9834;SDS011;69850;50.942;13.748;2024-02-23T08:05:02;1.75;;;0.40;;
9834;SDS011;69850;50.942;13.748;2024-02-23T08:08:24;0.95;;;0.32;;
9834;SDS011;69850;50.942;13.748;2024-02-23T08:11:46;1.35;;;0.30;;
9834;SDS011;69850;50.942;13.748;2024-02-23T08:15:06;0.47;;;0.38;;
9834;SDS011;69850;50.942;13.748;2024-02-23T08:18:27;1.48;;;0.20;;
9834;SDS011;69850;50.942;13.748;2024-02-23T08:21:48;0.52;;;0.30;;
9834;SDS011;69850;50.942;13.748;2024-02-23T08:25:09;2.75;;;0.40;;
9834;SDS011;69850;50.942;13.748;2024-02-23T08:28:30;0.73;;;0.35;;
9834;SDS011;69850;50.942;13.748;2024-02-23T08:31:50;0.93;;;0.30;;
9834;SDS011;69850;50.942;13.748;2024-02-23T08:35:11;1.85;;;0.30;;
9834;SDS011;69850;50.942;13.748;2024-02-23T08:38:32;1.75;;;0.40;;
9834;SDS011;69850;50.942;13.748;2024-02-23T08:41:53;1.23;;;0.30;;
9834;SDS011;69850;50.942;13.748;2024-02-23T08:45:15;0.95;;;0.43;;
9834;SDS011;69850;50.942;13.748;2024-02-23T08:48:36;2.22;;;0.30;;
9834;SDS011;69850;50.942;13.748;2024-02-23T08:51:57;1.40;;;0.50;;
9834;SDS011;69850;50.942;13.748;2024-02-23T08:55:20;1.23;;;0.40;;
9834;SDS011;69850;50.942;13.748;2024-02-23T08:58:41;2.30;;;0.50;;
9834;SDS011;69850;50.942;13.748;2024-02-23T09:02:02;2.13;;;0.40;;
9834;SDS011;69850;50.942;13.748;2024-02-23T09:05:23;2.20;;;0.40;;
9834;SDS011;69850;50.942;13.748;2024-02-23T09:08:43;1.02;;;0.30;;
9834;SDS011;69850;50.942;13.748;2024-02-23T09:12:04;0.85;;;0.30;;
9834;SDS011;69850;50.942;13.748;2024-02-23T09:15:27;1.45;;;0.30;;
9834;SDS011;69850;50.942;13.748;2024-02-23T09:18:47;0.93;;;0.35;;
9834;SDS011;69850;50.942;13.748;2024-02-23T09:22:08;1.95;;;0.43;;
9834;SDS011;69850;50.942;13.748;2024-02-23T09:25:28;1.38;;;0.40;;
9834;SDS011;69850;50.942;13.748;2024-02-23T09:28:49;1.40;;;0.40;;
9834;SDS011;69850;50.942;13.748;2024-02-23T09:32:10;1.85;;;0.40;;
9834;SDS011;69850;50.942;13.748;2024-02-23T09:35:31;1.77;;;0.40;;
9834;SDS011;69850;50.942;13.748;2024-02-23T09:38:52;1.45;;;0.30;;
9834;SDS011;69850;50.942;13.748;2024-02-23T09:42:14;1.08;;;0.30;;
9834;SDS011;69850;50.942;13.748;2024-02-23T09:45:35;3.20;;;0.40;;
9834;SDS011;69850;50.942;13.748;2024-02-23T09:48:56;1.30;;;0.30;;
9834;SDS011;69850;50.942;13.748;2024-02-23T09:52:16;1.23;;;0.30;;
9834;SDS011;69850;50.942;13.748;2024-02-23T09:55:38;1.73;;;0.35;;
9834;SDS011;69850;50.942;13.748;2024-02-23T09:59:00;1.67;;;0.30;;
9834;SDS011;69850;50.942;13.748;2024-02-23T10:02:22;2.17;;;0.40;;
9834;SDS011;69850;50.942;13.748;2024-02-23T10:05:43;0.95;;;0.35;;
9834;SDS011;69850;50.942;13.748;2024-02-23T10:09:06;0.88;;;0.30;;
9834;SDS011;69850;50.942;13.748;2024-02-23T10:12:26;0.85;;;0.30;;
9834;SDS011;69850;50.942;13.748;2024-02-23T10:15:47;0.75;;;0.28;;
9834;SDS011;69850;50.942;13.748;2024-02-23T10:19:08;2.47;;;0.45;;
9834;SDS011;69850;50.942;13.748;2024-02-23T10:22:30;2.13;;;0.30;;
9834;SDS011;69850;50.942;13.748;2024-02-23T10:25:51;0.88;;;0.30;;
9834;SDS011;69850;50.942;13.748;2024-02-23T10:29:12;1.95;;;0.65;;
9834;SDS011;69850;50.942;13.748;2024-02-23T10:32:33;1.45;;;0.45;;
9834;SDS011;69850;50.942;13.748;2024-02-23T10:35:58;1.17;;;0.40;;
9834;SDS011;69850;50.942;13.748;2024-02-23T10:39:21;2.42;;;0.60;;
9834;SDS011;69850;50.942;13.748;2024-02-23T10:42:44;2.60;;;0.32;;
9834;SDS011;69850;50.942;13.748;2024-02-23T10:46:11;1.08;;;0.38;;
9834;SDS011;69850;50.942;13.748;2024-02-23T10:49:35;1.48;;;0.60;;
9834;SDS011;69850;50.942;13.748;2024-02-23T10:52:56;1.10;;;0.43;;
9834;SDS011;69850;50.942;13.748;2024-02-23T10:56:17;2.85;;;0.40;;
9834;SDS011;69850;50.942;13.748;2024-02-23T10:59:38;1.98;;;0.40;;
9834;SDS011;69850;50.942;13.748;2024-02-23T11:02:59;0.95;;;0.40;;
9834;SDS011;69850;50.942;13.748;2024-02-23T11:06:23;0.30;;;0.30;;
9834;SDS011;69850;50.942;13.748;2024-02-23T11:09:59;1.02;;;0.40;;
9834;SDS011;69850;50.942;13.748;2024-02-23T11:13:30;1.73;;;0.47;;
9834;SDS011;69850;50.942;13.748;2024-02-23T11:16:51;0.85;;;0.30;;
9834;SDS011;69850;50.942;13.748;2024-02-23T11:20:14;3.38;;;1.98;;
9834;SDS011;69850;50.942;13.748;2024-02-23T11:23:41;1.77;;;1.20;;
9834;SDS011;69850;50.942;13.748;2024-02-23T11:27:05;0.90;;;0.30;;
9834;SDS011;69850;50.942;13.748;2024-02-23T11:30:31;0.40;;;0.20;;
9834;SDS011;69850;50.942;13.748;2024-02-23T11:33:56;0.88;;;0.50;;
9834;SDS011;69850;50.942;13.748;2024-02-23T11:37:18;1.05;;;0.40;;
9834;SDS011;69850;50.942;13.748;2024-02-23T11:40:39;1.85;;;0.43;;
9834;SDS011;69850;50.942;13.748;2024-02-23T11:43:59;1.00;;;0.28;;
9834;SDS011;69850;50.942;13.748;2024-02-23T11:47:20;0.77;;;0.30;;
9834;SDS011;69850;50.942;13.748;2024-02-23T11:50:42;0.75;;;0.40;;
9834;SDS011;69850;50.942;13.748;2024-02-23T11:54:02;1.63;;;0.40;;
9834;SDS011;69850;50.942;13.748;2024-02-23T11:57:24;0.60;;;0.20;;
9834;SDS011;69850;50.942;13.748;2024-02-23T12:00:44;1.48;;;0.38;;
9834;SDS011;69850;50.942;13.748;2024-02-23T12:04:06;0.85;;;0.40;;
9834;SDS011;69850;50.942;13.748;2024-02-23T12:07:28;0.95;;;0.22;;
9834;SDS011;69850;50.942;13.748;2024-02-23T12:10:49;0.50;;;0.32;;
9834;SDS011;69850;50.942;13.748;2024-02-23T12:14:10;1.63;;;0.52;;
9834;SDS011;69850;50.942;13.748;2024-02-23T12:17:35;0.75;;;0.30;;
9834;SDS011;69850;50.942;13.748;2024-02-23T12:21:00;1.75;;;0.20;;
9834;SDS011;69850;50.942;13.748;2024-02-23T12:24:25;0.68;;;0.20;;
9834;SDS011;69850;50.942;13.748;2024-02-23T12:27:53;2.05;;;0.40;;
9834;SDS011;69850;50.942;13.748;2024-02-23T12:31:14;0.55;;;0.20;;
9834;SDS011;69850;50.942;13.748;2024-02-23T12:34:35;1.70;;;0.30;;
9834;SDS011;69850;50.942;13.748;2024-02-23T12:37:56;2.28;;;0.40;;
9834;SDS011;69850;50.942;13.748;2024-02-23T12:41:16;1.67;;;0.55;;
9834;SDS011;69850;50.942;13.748;2024-02-23T12:44:37;2.03;;;1.35;;
9834;SDS011;69850;50.942;13.748;2024-02-23T12:47:58;0.57;;;0.30;;
9834;SDS011;69850;50.942;13.748;2024-02-23T12:51:18;1.73;;;0.45;;
9834;SDS011;69850;50.942;13.748;2024-02-23T12:54:39;1.35;;;0.30;;
9834;SDS011;69850;50.942;13.748;2024-02-23T12:58:00;2.53;;;0.40;;
9834;SDS011;69850;50.942;13.748;2024-02-23T13:01:20;1.83;;;0.40;;
9834;SDS011;69850;50.942;13.748;2024-02-23T13:04:41;0.95;;;0.35;;
9834;SDS011;69850;50.942;13.748;2024-02-23T13:08:06;2.10;;;0.47;;
9834;SDS011;69850;50.942;13.748;2024-02-23T13:11:27;0.82;;;0.30;;
9834;SDS011;69850;50.942;13.748;2024-02-23T13:14:47;1.40;;;0.43;;
9834;SDS011;69850;50.942;13.748;2024-02-23T13:18:08;2.25;;;0.57;;
9834;SDS011;69850;50.942;13.748;2024-02-23T13:21:30;2.13;;;0.35;;
9834;SDS011;69850;50.942;13.748;2024-02-23T13:24:52;1.35;;;0.50;;
9834;SDS011;69850;50.942;13.748;2024-02-23T13:28:13;1.73;;;0.43;;
9834;SDS011;69850;50.942;13.748;2024-02-23T13:31:34;2.22;;;0.85;;
9834;SDS011;69850;50.942;13.748;2024-02-23T13:34:54;1.88;;;0.70;;
9834;SDS011;69850;50.942;13.748;2024-02-23T13:38:15;0.95;;;0.40;;
9834;SDS011;69850;50.942;13.748;2024-02-23T13:41:35;1.23;;;0.50;;
9834;SDS011;69850;50.942;13.748;2024-02-23T13:44:56;0.65;;;0.40;;
9834;SDS011;69850;50.942;13.748;2024-02-23T13:48:17;3.50;;;0.55;;
9834;SDS011;69850;50.942;13.748;2024-02-23T13:51:41;2.72;;;0.60;;
9834;SDS011;69850;50.942;13.748;2024-02-23T13:55:02;0.93;;;0.40;;
9834;SDS011;69850;50.942;13.748;2024-02-23T13:58:22;1.65;;;0.50;;
9834;SDS011;69850;50.942;13.748;2024-02-23T14:01:43;2.28;;;0.50;;
9834;SDS011;69850;50.942;13.748;2024-02-23T14:05:05;2.00;;;0.60;;
9834;SDS011;69850;50.942;13.748;2024-02-23T14:08:29;3.15;;;0.93;;
9834;SDS011;69850;50.942;13.748;2024-02-23T14:11:51;3.45;;;0.77;;
9834;SDS011;69850;50.942;13.748;2024-02-23T14:15:12;1.30;;;0.40;;
9834;SDS011;69850;50.942;13.748;2024-02-23T14:18:35;2.13;;;0.60;;
9834;SDS011;69850;50.942;13.748;2024-02-23T14:21:57;3.35;;;0.73;;
9834;SDS011;69850;50.942;13.748;2024-02-23T14:25:18;1.30;;;0.60;;
9834;SDS011;69850;50.942;13.748;2024-02-23T14:28:39;1.92;;;0.60;;
9834;SDS011;69850;50.942;13.748;2024-02-23T14:32:00;4.22;;;0.70;;
9834;SDS011;69850;50.942;13.748;2024-02-23T14:35:21;2.45;;;0.55;;
9834;SDS011;69850;50.942;13.748;2024-02-23T14:38:42;2.40;;;0.75;;
9834;SDS011;69850;50.942;13.748;2024-02-23T14:42:03;1.85;;;0.65;;
9834;SDS011;69850;50.942;13.748;2024-02-23T14:45:23;2.15;;;0.70;;
9834;SDS011;69850;50.942;13.748;2024-02-23T14:48:44;1.65;;;0.70;;
9834;SDS011;69850;50.942;13.748;2024-02-23T14:52:08;4.78;;;0.70;;
9834;SDS011;69850;50.942;13.748;2024-02-23T14:55:29;3.88;;;0.68;;
9834;SDS011;69850;50.942;13.748;2024-02-23T14:58:49;1.85;;;0.70;;
9834;SDS011;69850;50.942;13.748;2024-02-23T15:02:10;3.25;;;0.80;;
9834;SDS011;69850;50.942;13.748;2024-02-23T15:05:39;2.35;;;0.88;;
9834;SDS011;69850;50.942;13.748;2024-02-23T15:09:00;2.47;;;0.98;;
9834;SDS011;69850;50.942;13.748;2024-02-23T15:12:21;3.38;;;0.70;;
9834;SDS011;69850;50.942;13.748;2024-02-23T15:15:42;3.40;;;0.88;;
9834;SDS011;69850;50.942;13.748;2024-02-23T15:19:03;3.03;;;0.77;;
9834;SDS011;69850;50.942;13.748;2024-02-23T15:22:23;2.65;;;0.80;;
9834;SDS011;69850;50.942;13.748;2024-02-23T15:25:45;2.67;;;0.70;;
9834;SDS011;69850;50.942;13.748;2024-02-23T15:29:06;3.22;;;0.98;;
9834;SDS011;69850;50.942;13.748;2024-02-23T15:32:27;3.20;;;0.80;;
9834;SDS011;69850;50.942;13.748;2024-02-23T15:35:47;2.95;;;0.88;;
9834;SDS011;69850;50.942;13.748;2024-02-23T15:39:08;3.42;;;1.02;;
9834;SDS011;69850;50.942;13.748;2024-02-23T15:42:29;4.72;;;1.10;;
9834;SDS011;69850;50.942;13.748;2024-02-23T15:45:50;2.83;;;0.73;;
9834;SDS011;69850;50.942;13.748;2024-02-23T15:49:11;2.90;;;1.30;;
9834;SDS011;69850;50.942;13.748;2024-02-23T15:52:31;2.55;;;1.10;;
9834;SDS011;69850;50.942;13.748;2024-02-23T15:55:52;3.38;;;1.02;;
9834;SDS011;69850;50.942;13.748;2024-02-23T15:59:13;1.38;;;0.80;;
9834;SDS011;69850;50.942;13.748;2024-02-23T16:02:33;1.55;;;1.00;;
9834;SDS011;69850;50.942;13.748;2024-02-23T16:05:57;3.53;;;1.10;;
9834;SDS011;69850;50.942;13.748;2024-02-23T16:09:18;1.63;;;1.10;;
9834;SDS011;69850;50.942;13.748;2024-02-23T16:12:39;4.28;;;1.20;;
9834;SDS011;69850;50.942;13.748;2024-02-23T16:15:59;3.80;;;1.00;;
9834;SDS011;69850;50.942;13.748;2024-02-23T16:19:20;4.65;;;1.20;;
9834;SDS011;69850;50.942;13.748;2024-02-23T16:22:44;3.65;;;1.60;;
9834;SDS011;69850;50.942;13.748;2024-02-23T16:26:04;2.40;;;1.00;;
9834;SDS011;69850;50.942;13.748;2024-02-23T16:29:25;6.60;;;1.30;;
9834;SDS011;69850;50.942;13.748;2024-02-23T16:32:46;3.38;;;1.10;;
9834;SDS011;69850;50.942;13.748;2024-02-23T16:36:09;3.17;;;0.90;;
9834;SDS011;69850;50.942;13.748;2024-02-23T16:39:30;5.68;;;1.20;;
9834;SDS011;69850;50.942;13.748;2024-02-23T16:42:51;3.83;;;2.00;;
9834;SDS011;69850;50.942;13.748;2024-02-23T16:46:12;7.10;;;2.38;;
9834;SDS011;69850;50.942;13.748;2024-02-23T16:49:32;6.95;;;2.13;;
9834;SDS011;69850;50.942;13.748;2024-02-23T16:52:53;8.68;;;2.40;;
9834;SDS011;69850;50.942;13.748;2024-02-23T16:56:15;4.97;;;2.05;;
9834;SDS011;69850;50.942;13.748;2024-02-23T16:59:36;3.75;;;1.60;;
9834;SDS011;69850;50.942;13.748;2024-02-23T17:02:56;6.40;;;1.50;;
9834;SDS011;69850;50.942;13.748;2024-02-23T17:06:17;3.78;;;1.10;;
9834;SDS011;69850;50.942;13.748;2024-02-23T17:09:38;4.28;;;1.30;;
9834;SDS011;69850;50.942;13.748;2024-02-23T17:12:58;8.27;;;4.60;;
9834;SDS011;69850;50.942;13.748;2024-02-23T17:16:19;4.70;;;1.90;;
9834;SDS011;69850;50.942;13.748;2024-02-23T17:19:47;2.15;;;1.20;;
9834;SDS011;69850;50.942;13.748;2024-02-23T17:23:08;4.07;;;1.73;;
9834;SDS011;69850;50.942;13.748;2024-02-23T17:26:28;5.05;;;1.42;;
9834;SDS011;69850;50.942;13.748;2024-02-23T17:29:49;4.03;;;1.33;;
9834;SDS011;69850;50.942;13.748;2024-02-23T17:33:10;3.75;;;1.23;;
9834;SDS011;69850;50.942;13.748;2024-02-23T17:36:30;2.38;;;1.10;;
9834;SDS011;69850;50.942;13.748;2024-02-23T17:39:51;2.30;;;1.10;;
9834;SDS011;69850;50.942;13.748;2024-02-23T17:43:14;3.45;;;1.08;;
9834;SDS011;69850;50.942;13.748;2024-02-23T17:46:34;2.65;;;1.10;;
9834;SDS011;69850;50.942;13.748;2024-02-23T17:49:56;3.38;;;1.10;;
9834;SDS011;69850;50.942;13.748;2024-02-23T17:53:17;2.83;;;1.38;;
9834;SDS011;69850;50.942;13.748;2024-02-23T17:56:39;2.03;;;1.00;;
9834;SDS011;69850;50.942;13.748;2024-02-23T17:59:59;3.17;;;0.95;;
9834;SDS011;69850;50.942;13.748;2024-02-23T18:03:25;2.20;;;1.30;;
9834;SDS011;69850;50.942;13.748;2024-02-23T18:06:46;4.03;;;1.50;;
9834;SDS011;69850;50.942;13.748;2024-02-23T18:10:07;4.70;;;1.92;;
9834;SDS011;69850;50.942;13.748;2024-02-23T18:13:28;8.70;;;4.13;;
9834;SDS011;69850;50.942;13.748;2024-02-23T18:16:48;12.25;;;5.03;;
9834;SDS011;69850;50.942;13.748;2024-02-23T18:20:10;4.82;;;2.05;;
9834;SDS011;69850;50.942;13.748;2024-02-23T18:23:31;6.07;;;2.28;;
9834;SDS011;69850;50.942;13.748;2024-02-23T18:26:53;6.68;;;2.83;;
9834;SDS011;69850;50.942;13.748;2024-02-23T18:30:14;6.93;;;3.30;;
9834;SDS011;69850;50.942;13.748;2024-02-23T18:33:35;5.70;;;1.90;;
9834;SDS011;69850;50.942;13.748;2024-02-23T18:36:56;2.85;;;1.48;;
9834;SDS011;69850;50.942;13.748;2024-02-23T18:40:16;5.25;;;1.80;;
9834;SDS011;69850;50.942;13.748;2024-02-23T18:43:37;3.78;;;1.60;;
9834;SDS011;69850;50.942;13.748;2024-02-23T18:47:00;2.97;;;1.30;;
9834;SDS011;69850;50.942;13.748;2024-02-23T18:50:22;4.40;;;1.48;;
9834;SDS011;69850;50.942;13.748;2024-02-23T18:53:42;2.65;;;1.30;;
9834;SDS011;69850;50.942;13.748;2024-02-23T18:57:03;2.67;;;1.13;;
9834;SDS011;69850;50.942;13.748;2024-02-23T19:00:24;2.97;;;1.42;;
9834;SDS011;69850;50.942;13.748;2024-02-23T19:03:45;2.85;;;1.40;;
9834;SDS011;69850;50.942;13.748;2024-02-23T19:07:06;3.08;;;1.60;;
9834;SDS011;69850;50.942;13.748;2024-02-23T19:10:27;2.63;;;1.40;;
9834;SDS011;69850;50.942;13.748;2024-02-23T19:13:47;3.72;;;1.58;;
9834;SDS011;69850;50.942;13.748;2024-02-23T19:17:08;2.85;;;1.40;;
9834;SDS011;69850;50.942;13.748;2024-02-23T19:20:29;3.47;;;1.90;;
9834;SDS011;69850;50.942;13.748;2024-02-23T19:23:49;2.42;;;1.50;;
9834;SDS011;69850;50.942;13.748;2024-02-23T19:27:10;4.50;;;2.97;;
9834;SDS011;69850;50.942;13.748;2024-02-23T19:30:31;3.28;;;2.00;;
9834;SDS011;69850;50.942;13.748;2024-02-23T19:33:51;5.38;;;2.83;;
9834;SDS011;69850;50.942;13.748;2024-02-23T19:37:13;11.13;;;4.72;;
9834;SDS011;69850;50.942;13.748;2024-02-23T19:40:34;4.22;;;2.28;;
9834;SDS011;69850;50.942;13.748;2024-02-23T19:43:54;3.20;;;1.30;;
9834;SDS011;69850;50.942;13.748;2024-02-23T19:47:15;3.40;;;1.20;;
9834;SDS011;69850;50.942;13.748;2024-02-23T19:50:36;2.92;;;1.33;;
9834;SDS011;69850;50.942;13.748;2024-02-23T19:53:56;4.10;;;1.23;;
9834;SDS011;69850;50.942;13.748;2024-02-23T19:57:17;3.40;;;1.67;;
9834;SDS011;69850;50.942;13.748;2024-02-23T20:00:38;3.45;;;1.05;;
9834;SDS011;69850;50.942;13.748;2024-02-23T20:03:58;2.47;;;1.08;;
9834;SDS011;69850;50.942;13.748;2024-02-23T20:07:19;3.72;;;1.30;;
9834;SDS011;69850;50.942;13.748;2024-02-23T20:10:41;4.68;;;1.50;;
9834;SDS011;69850;50.942;13.748;2024-02-23T20:14:01;5.38;;;1.60;;